Time;durP1;ratioP1;P1;durP2;ratioP2;P2;SDS_P1;SDS_P2;PMS_P1;PMS_P2;Temp;Humidity;BMP_temperature;BMP_pressure;BME280_temperature;BME280_humidity;BME280_pressure;Samples;Min_cycle;Max_cycle;Signal;HPM_P1;HPM_P2
2022/11/03 00:02:25;;;;;;;60.03;32.10;;;;;;;15.92;83.00;101836.13;4859582;29;20056;-82
2022/11/03 00:04:56;;;;;;;50.47;32.42;;;;;;;16.66;82.96;101957.91;4883103;29;20059;-83
2022/11/03 00:07:28;;;;;;;48.28;33.65;;;;;;;16.17;82.87;101871.34;4843797;29;20234;-84
2022/11/03 00:09:55;;;;;;;47.45;30.70;;;;;;;16.67;82.80;101957.78;4861318;29;20064;-83
2022/11/03 00:12:28;;;;;;;55.20;32.17;;;;;;;16.17;83.52;101866.00;4863763;29;20278;-84
2022/11/03 00:15:01;;;;;;;51.28;33.15;;;;;;;16.61;83.52;101923.47;4839552;29;20589;-83
2022/11/03 00:17:28;;;;;;;60.30;34.13;;;;;;;16.37;82.99;101890.94;4873051;29;20052;-84
2022/11/03 00:19:56;;;;;;;55.25;32.80;;;;;;;16.04;83.29;101834.13;4845169;29;20086;-85
2022/11/03 00:22:28;;;;;;;52.75;33.15;;;;;;;15.91;82.56;101807.63;4855877;29;20594;-83
2022/11/03 00:25:02;;;;;;;52.22;32.38;;;;;;;16.60;83.18;101918.25;4857289;29;20320;-82
2022/11/03 00:27:30;;;;;;;49.85;31.58;;;;;;;16.60;83.27;101915.56;4867715;29;20044;-83
2022/11/03 00:29:57;;;;;;;54.00;32.67;;;;;;;16.74;82.58;101949.97;4862460;29;20052;-84
2022/11/03 00:32:23;;;;;;;48.72;31.85;;;;;;;16.37;82.11;101889.09;4863933;29;20238;-84
2022/11/03 00:34:51;;;;;;;58.58;32.63;;;;;;;16.74;83.05;101943.78;4877593;29;20064;-83
2022/11/03 00:37:17;;;;;;;56.40;32.80;;;;;;;16.77;82.73;101948.84;4864011;29;20052;-84
2022/11/03 00:39:44;;;;;;;50.10;31.30;;;;;;;16.66;82.62;101931.94;4870082;29;20066;-84
2022/11/03 00:42:16;;;;;;;50.38;31.88;;;;;;;16.76;83.12;101945.31;4851511;29;20052;-84
2022/11/03 00:44:43;;;;;;;57.25;32.80;;;;;;;16.56;83.05;101919.56;4853709;29;20547;-86
2022/11/03 00:47:09;;;;;;;60.90;34.88;;;;;;;16.77;83.26;101954.22;4849044;29;20737;-84
2022/11/03 00:49:36;;;;;;;51.72;33.63;;;;;;;16.62;84.07;101929.69;4863060;29;20060;-84
2022/11/03 00:52:09;;;;;;;58.75;32.58;;;;;;;16.42;83.32;101889.50;4867340;29;20487;-85
2022/11/03 00:54:36;;;;;;;58.78;35.15;;;;;;;16.74;83.55;101955.34;4883123;29;20147;-84
2022/11/03 00:57:13;;;;;;;66.45;37.85;;;;;;;16.77;83.77;101954.22;4864488;29;20063;-83
2022/11/03 00:59:45;;;;;;;59.65;36.13;;;;;;;15.86;82.90;101804.53;4874507;29;20370;-84
2022/11/03 01:02:12;;;;;;;63.63;36.53;;;;;;;15.77;83.30;101800.03;4867734;29;20186;-84
2022/11/03 01:07:30;;;;;;;64.07;37.13;;;;;;;16.76;81.99;101949.84;4894927;29;20060;-82
2022/11/03 01:09:56;;;;;;;61.60;38.05;;;;;;;15.86;82.61;101814.41;4884528;29;20462;-84
2022/11/03 01:12:26;;;;;;;59.15;37.42;;;;;;;16.30;83.37;101896.00;4870105;29;20387;-83
2022/11/03 01:14:53;;;;;;;65.80;39.72;;;;;;;16.23;83.70;101892.22;4869036;29;20446;-84
2022/11/03 01:17:30;;;;;;;62.78;38.40;;;;;;;16.49;83.39;101934.50;4891897;29;20048;-85
2022/11/03 01:20:01;;;;;;;70.85;39.63;;;;;;;16.28;83.60;101908.69;4868748;29;20059;-83
2022/11/03 01:22:29;;;;;;;60.70;37.78;;;;;;;16.40;84.08;101928.16;4882738;29;20052;-85
2022/11/03 01:25:03;;;;;;;62.33;38.47;;;;;;;16.42;83.85;101934.22;4866980;29;20052;-83
2022/11/03 01:27:33;;;;;;;63.88;40.00;;;;;;;16.34;84.12;101921.53;4869203;29;20064;-85
2022/11/03 01:30:00;;;;;;;67.75;39.00;;;;;;;15.93;84.12;101851.19;4862572;29;20068;-85
2022/11/03 01:32:27;;;;;;;58.60;37.58;;;;;;;15.92;83.96;101841.50;4857168;29;20194;-84
2022/11/03 01:34:55;;;;;;;59.67;38.63;;;;;;;15.58;83.54;101782.09;4859495;29;20056;-87
2022/11/03 01:37:23;;;;;;;73.63;38.75;;;;;;;16.19;83.78;101891.66;4864398;29;20052;-85
2022/11/03 01:39:52;;;;;;;65.95;38.92;;;;;;;16.27;83.80;101901.66;4873272;29;20513;-84
2022/11/03 01:42:19;;;;;;;61.35;38.72;;;;;;;16.33;84.29;101911.78;4879179;29;20368;-84
2022/11/03 01:44:53;;;;;;;59.35;36.75;;;;;;;16.35;83.65;101906.31;4871889;29;20635;-85
2022/11/03 01:47:34;;;;;;;63.05;38.83;;;;;;;16.33;84.31;101911.78;4878286;29;20143;-85
2022/11/03 01:50:09;;;;;;;59.25;37.60;;;;;;;16.36;84.42;101907.97;4880406;29;20063;-84
2022/11/03 01:52:57;;;;;;;68.28;38.00;;;;;;;15.86;83.29;101820.63;4863245;29;20060;-86
2022/11/03 01:55:30;;;;;;;64.85;37.40;;;;;;;16.36;83.18;101905.31;4868265;29;20186;-85
2022/11/03 01:57:57;;;;;;;59.15;35.92;;;;;;;15.99;83.39;101834.53;4867730;29;20064;-84
2022/11/03 02:00:28;;;;;;;63.35;36.78;;;;;;;16.36;83.36;101902.63;4888904;29;20057;-83
2022/11/03 02:02:58;;;;;;;68.65;37.45;;;;;;;15.81;83.47;101806.81;4889491;29;20408;-84
2022/11/03 02:05:28;;;;;;;67.93;36.42;;;;;;;15.99;83.27;101831.88;4901784;29;20662;-83
2022/11/03 02:08:12;;;;;;;64.95;37.92;;;;;;;16.03;83.13;101840.47;4869217;29;20516;-88
2022/11/03 02:10:40;;;;;;;64.57;35.67;;;;;;;15.81;83.37;101796.09;4875813;29;20175;-84
2022/11/03 02:13:18;;;;;;;65.70;37.22;;;;;;;16.01;83.65;101840.63;4853547;29;20056;-84
2022/11/03 02:15:49;;;;;;;56.97;36.72;;;;;;;16.28;83.51;101895.31;4859363;29;20422;-85
2022/11/03 02:18:22;;;;;;;61.77;36.83;;;;;;;16.29;83.69;101894.34;4856183;29;20052;-86
2022/11/03 02:21:08;;;;;;;60.33;36.30;;;;;;;15.67;83.68;101793.81;4834049;29;20061;-86
2022/11/03 02:24:11;;;;;;;56.25;35.05;;;;;;;16.26;83.88;101885.72;4829133;29;20406;-84
2022/11/03 02:26:43;;;;;;;56.88;34.88;;;;;;;15.76;83.97;101793.00;4840827;29;20057;-82
2022/11/03 02:29:10;;;;;;;61.25;37.75;;;;;;;16.25;83.69;101874.16;4824075;29;20414;-85
2022/11/03 02:31:48;;;;;;;59.58;36.85;;;;;;;16.19;83.65;101875.59;4820262;29;20239;-83
2022/11/03 02:34:24;;;;;;;57.45;37.40;;;;;;;14.85;83.40;101637.19;4840981;29;20052;-84
2022/11/03 02:37:20;;;;;;;69.93;38.15;;;;;;;16.00;83.70;101830.06;4823816;29;20422;-83
2022/11/03 02:39:57;;;;;;;64.30;38.90;;;;;;;16.23;84.37;101865.41;4838094;29;20102;-83
2022/11/03 02:42:25;;;;;;;74.88;42.38;;;;;;;16.05;84.06;101829.63;4833455;29;20447;-84
2022/11/03 02:44:59;;;;;;;71.95;43.08;;;;;;;16.19;83.96;101854.16;4824647;29;20063;-83
2022/11/03 02:47:33;;;;;;;65.05;43.38;;;;;;;15.82;84.01;101787.06;4835240;29;20055;-82
2022/11/03 02:50:09;;;;;;;64.78;41.35;;;;;;;16.08;84.05;101835.53;4848999;29;20876;-84
2022/11/03 02:52:44;;;;;;;67.05;42.75;;;;;;;16.18;84.49;101852.44;4832259;29;20056;-84
2022/11/03 02:55:41;;;;;;;68.72;43.83;;;;;;;15.91;84.43;101802.28;4840838;29;20481;-84
2022/11/03 02:58:31;;;;;;;59.58;41.63;;;;;;;16.23;83.97;101854.69;4839205;29;20171;-83
2022/11/03 03:01:13;;;;;;;74.35;44.88;;;;;;;15.33;84.63;101716.59;4846368;29;20064;-82
2022/11/03 03:03:51;;;;;;;74.05;46.08;;;;;;;14.98;84.31;101653.81;4827919;29;20236;-82
2022/11/03 03:06:36;;;;;;;75.07;43.97;;;;;;;15.92;85.11;101808.47;4837301;29;20278;-82
2022/11/03 03:09:11;;;;;;;70.03;44.67;;;;;;;16.18;85.15;101852.44;4855987;29;20055;-83
2022/11/03 03:11:46;;;;;;;69.32;46.70;;;;;;;15.98;84.91;101818.63;4840790;29;20119;-83
2022/11/03 03:14:30;;;;;;;79.40;47.08;;;;;;;15.99;84.89;101817.63;4846961;29;20148;-81
2022/11/03 03:17:33;;;;;;;74.15;48.85;;;;;;;16.19;84.94;101854.16;4835860;29;20049;-82
2022/11/03 03:20:25;;;;;;;74.60;47.42;;;;;;;15.99;85.31;101807.75;4793875;29;20153;-81
2022/11/03 03:23:27;;;;;;;80.35;47.35;;;;;;;16.26;84.09;101843.69;4822821;29;20662;-82
2022/11/03 03:26:31;;;;;;;72.90;46.33;;;;;;;16.22;84.10;101845.81;4822415;29;20249;-82
2022/11/03 03:29:16;;;;;;;81.15;49.83;;;;;;;16.13;83.97;101835.13;4820058;29;20265;-83
2022/11/03 03:32:02;;;;;;;80.80;47.85;;;;;;;16.23;84.27;101857.38;4834556;29;20183;-82
2022/11/03 03:34:42;;;;;;;73.38;49.00;;;;;;;16.16;83.93;101838.34;4840796;29;20170;-82
2022/11/03 03:37:17;;;;;;;74.80;47.10;;;;;;;16.12;84.05;101836.13;4841222;29;20332;-82
2022/11/03 03:39:58;;;;;;;77.30;46.55;;;;;;;16.17;84.53;101858.81;4853297;29;20087;-83
2022/11/03 03:42:38;;;;;;;75.57;48.75;;;;;;;15.14;84.92;101691.53;4841848;29;20597;-81
2022/11/03 03:45:07;;;;;;;71.82;44.65;;;;;;;15.60;84.99;101767.59;4839472;29;20048;-82
2022/11/03 03:47:34;;;;;;;75.13;43.60;;;;;;;16.20;84.45;101855.00;4840848;29;20401;-81
2022/11/03 03:50:06;;;;;;;79.03;45.67;;;;;;;16.10;85.33;101838.09;4844250;29;20056;-81
2022/11/03 03:52:34;;;;;;;73.28;44.25;;;;;;;15.90;84.35;101791.69;4843791;29;20304;-80
2022/11/03 03:55:05;;;;;;;78.50;46.70;;;;;;;15.73;84.39;101766.53;4848260;29;20641;-81
2022/11/03 03:57:35;;;;;;;71.13;43.55;;;;;;;16.20;84.71;101849.63;4838685;29;20518;-83
2022/11/03 04:00:07;;;;;;;72.53;46.17;;;;;;;15.76;84.89;101787.66;4840250;29;20060;-83
2022/11/03 04:02:35;;;;;;;69.20;43.83;;;;;;;15.78;85.17;101794.53;4838192;29;20841;-82
2022/11/03 04:05:02;;;;;;;70.35;45.40;;;;;;;16.20;85.26;101852.31;4842482;29;20689;-80
2022/11/03 04:07:49;;;;;;;66.45;45.03;;;;;;;16.03;85.04;101833.28;4842104;29;20059;-82
2022/11/03 04:10:18;;;;;;;69.18;45.03;;;;;;;15.51;85.22;101741.69;4839009;29;20052;-81
2022/11/03 04:24:05;;;;;;;80.47;46.15;;;;;;;15.87;85.03;101795.50;4838804;29;20060;-82
2022/11/03 04:26:31;;;;;;;70.85;42.95;;;;;;;16.29;84.55;101870.22;4836775;29;20417;-83
2022/11/03 04:29:00;;;;;;;68.80;44.35;;;;;;;16.29;83.65;101864.84;4825177;29;20939;-81
2022/11/03 04:31:37;;;;;;;85.97;43.50;;;;;;;15.92;83.66;101809.34;4834707;29;20395;-81
2022/11/03 04:34:14;;;;;;;73.18;43.72;;;;;;;16.30;84.29;101866.53;4840590;29;20066;-82
2022/11/03 04:36:40;;;;;;;73.63;46.05;;;;;;;16.34;83.50;101861.75;4828319;29;20172;-82
2022/11/03 04:39:23;;;;;;;76.70;47.03;;;;;;;16.22;82.93;101843.13;4834992;29;20066;-82
2022/11/03 04:42:05;;;;;;;78.93;45.95;;;;;;;16.22;84.64;101855.69;4836975;29;20051;-82
2022/11/03 04:44:37;;;;;;;76.07;44.60;;;;;;;16.03;85.09;101819.91;4838609;29;20075;-81
2022/11/03 04:47:12;;;;;;;82.18;46.33;;;;;;;16.13;84.68;101840.47;4825679;29;20161;-83
2022/11/03 04:49:39;;;;;;;76.30;44.17;;;;;;;16.23;85.11;101838.63;4836433;29;20350;-81
2022/11/03 04:52:16;;;;;;;75.40;44.55;;;;;;;16.13;84.83;101832.44;4836284;29;20230;-81
2022/11/03 04:54:49;;;;;;;69.85;42.35;;;;;;;16.15;84.06;101830.47;4835773;29;20079;-83
2022/11/03 04:57:21;;;;;;;74.47;43.90;;;;;;;16.20;85.28;101844.28;4834770;29;20360;-83
2022/11/03 04:59:57;;;;;;;69.45;41.70;;;;;;;15.77;84.69;101763.38;4840525;29;20056;-82
2022/11/03 05:02:33;;;;;;;68.35;42.60;;;;;;;15.87;85.61;101795.50;4835187;29;20214;-82
2022/11/03 05:05:24;;;;;;;79.03;42.40;;;;;;;16.15;85.01;101831.31;4844735;29;20064;-82
2022/11/03 05:08:01;;;;;;;63.83;41.17;;;;;;;15.29;84.82;101683.09;4842687;29;21008;-83
2022/11/03 05:10:34;;;;;;;72.18;43.13;;;;;;;16.10;85.15;101833.56;4857613;29;20062;-82
2022/11/03 05:13:01;;;;;;;74.85;41.55;;;;;;;16.20;85.70;101839.75;4818805;29;20599;-83
2022/11/03 05:15:33;;;;;;;77.75;45.25;;;;;;;16.21;85.91;101829.88;4823903;29;20063;-83
2022/11/03 05:18:17;;;;;;;63.50;41.92;;;;;;;15.95;85.83;101782.28;4826918;29;20622;-81
2022/11/03 05:20:55;;;;;;;72.28;43.78;;;;;;;15.99;85.78;101788.19;4818280;29;20497;-84
2022/11/03 05:23:25;;;;;;;70.07;42.38;;;;;;;16.17;85.53;101807.06;4823034;29;20048;-82
2022/11/03 05:25:55;;;;;;;71.97;43.45;;;;;;;15.97;85.83;101768.72;4828049;29;20051;-83
2022/11/03 05:28:37;;;;;;;66.97;43.75;;;;;;;15.97;85.80;101774.94;4841699;29;20066;-82
2022/11/03 05:31:31;;;;;;;76.28;44.20;;;;;;;15.91;85.84;101770.16;4854033;29;20067;-82
2022/11/03 05:34:21;;;;;;;73.13;43.35;;;;;;;16.14;86.08;101805.53;4855507;29;20956;-83
2022/11/03 05:36:57;;;;;;;73.88;45.08;;;;;;;15.90;85.66;101764.94;4850439;29;20048;-81
2022/11/03 05:39:44;;;;;;;76.50;44.80;;;;;;;16.23;86.23;101827.91;4850908;29;20052;-82
2022/11/03 05:42:32;;;;;;;66.75;42.90;;;;;;;16.14;86.61;101805.53;4855869;29;20043;-83
2022/11/03 05:45:21;;;;;;;76.78;44.10;;;;;;;15.17;85.83;101644.97;4856726;29;20202;-81
2022/11/03 05:47:57;;;;;;;75.28;43.53;;;;;;;16.23;85.95;101814.50;4878403;29;20541;-81
2022/11/03 05:50:26;;;;;;;74.72;43.67;;;;;;;15.46;85.37;101685.09;4842957;29;20533;-85
2022/11/03 05:53:17;;;;;;;75.75;44.58;;;;;;;16.29;85.31;101827.34;4838340;29;20079;-82
2022/11/03 05:55:47;;;;;;;76.75;44.90;;;;;;;16.15;85.67;101815.22;4845299;29;20136;-84
2022/11/03 05:58:24;;;;;;;75.45;43.63;;;;;;;16.30;85.43;101823.66;4852042;29;20319;-82
2022/11/03 06:00:52;;;;;;;74.50;45.33;;;;;;;16.33;85.71;101833.25;4868400;29;20064;-83
2022/11/03 06:03:29;;;;;;;80.22;43.30;;;;;;;16.03;85.61;101787.75;4896816;29;20134;-83
2022/11/03 06:05:59;;;;;;;76.07;47.65;;;;;;;16.35;85.49;101832.09;4889101;29;20576;-82
2022/11/03 06:08:35;;;;;;;76.00;43.53;;;;;;;15.66;85.45;101717.19;4890147;29;20048;-81
2022/11/03 06:11:14;;;;;;;73.35;44.15;;;;;;;16.34;84.98;101824.22;4880755;29;20522;-81
2022/11/03 06:13:43;;;;;;;84.80;45.72;;;;;;;14.84;84.80;101587.41;4881254;29;20116;-81
2022/11/03 06:16:20;;;;;;;78.13;44.17;;;;;;;15.32;85.40;101678.31;4868103;29;20052;-81
2022/11/03 06:18:48;;;;;;;81.72;45.08;;;;;;;15.69;84.93;101725.75;4879761;29;20114;-82
2022/11/03 06:21:21;;;;;;;80.35;44.45;;;;;;;15.16;83.95;101641.41;4885132;29;20256;-81
2022/11/03 06:23:54;;;;;;;82.45;45.75;;;;;;;15.34;85.13;101680.84;4912532;29;20055;-81
2022/11/03 06:26:27;;;;;;;79.55;45.00;;;;;;;14.97;84.71;101609.31;4900840;29;20074;-80
2022/11/03 06:29:00;;;;;;;76.25;44.72;;;;;;;15.49;84.87;101679.44;4902751;29;20075;-79
2022/11/03 06:31:35;;;;;;;80.93;44.22;;;;;;;15.29;85.51;101656.34;4921045;29;20318;-79
2022/11/03 06:34:18;;;;;;;85.30;47.58;;;;;;;15.22;84.93;101633.81;4913833;29;20055;-78
2022/11/03 06:36:55;;;;;;;77.78;45.30;;;;;;;15.59;84.87;101698.16;4915009;29;20071;-81
2022/11/03 06:39:23;;;;;;;82.60;46.13;;;;;;;16.29;84.94;101813.06;4899566;29;20056;-80
2022/11/03 06:41:51;;;;;;;82.30;44.97;;;;;;;16.11;85.46;101783.50;4902085;29;20458;-78
2022/11/03 06:44:24;;;;;;;77.85;45.83;;;;;;;15.89;85.54;101745.34;4912925;29;20055;-79
2022/11/03 06:47:06;;;;;;;77.43;47.72;;;;;;;15.11;85.52;101616.94;4911245;29;20064;-79
2022/11/03 06:49:34;;;;;;;84.15;48.55;;;;;;;16.36;85.17;101827.59;4886475;29;20063;-79
2022/11/03 06:52:21;;;;;;;78.28;46.10;;;;;;;16.43;85.63;101829.56;4880046;29;20131;-81
2022/11/03 06:54:58;;;;;;;81.60;46.85;;;;;;;16.34;84.92;101830.44;4879712;29;20587;-83
2022/11/03 06:57:34;;;;;;;82.55;45.33;;;;;;;16.01;84.62;101760.25;4882716;29;20481;-83
2022/11/03 07:00:00;;;;;;;81.15;45.40;;;;;;;16.27;85.11;101805.19;4876956;29;20052;-80
2022/11/03 07:02:54;;;;;;;81.82;45.63;;;;;;;16.07;84.72;101764.22;4878232;29;20548;-82
2022/11/03 07:05:25;;;;;;;77.43;44.75;;;;;;;16.41;84.28;101820.81;4882883;29;20061;-82
2022/11/03 07:07:58;;;;;;;81.57;45.72;;;;;;;16.56;84.66;101836.44;4896696;29;20115;-82
2022/11/03 07:10:28;;;;;;;80.30;45.72;;;;;;;16.30;84.74;101801.38;4889942;29;20097;-80
2022/11/03 07:13:01;;;;;;;90.97;47.28;;;;;;;16.40;84.33;101808.41;4900314;29;20529;-81
2022/11/03 07:15:38;;;;;;;90.13;46.95;;;;;;;16.69;84.76;101849.53;4897894;29;20073;-82
2022/11/03 07:18:28;;;;;;;87.32;51.20;;;;;;;16.69;84.88;101846.84;4891917;29;20091;-83
2022/11/03 07:21:01;;;;;;;85.40;48.95;;;;;;;16.51;84.10;101803.88;4876945;29;20127;-82
2022/11/03 07:23:30;;;;;;;87.53;49.00;;;;;;;16.73;83.51;101845.56;4878955;29;20402;-81
2022/11/03 07:26:00;;;;;;;88.28;48.75;;;;;;;16.79;83.79;101850.34;4874735;29;20350;-81
2022/11/03 07:28:37;;;;;;;87.15;47.90;;;;;;;16.79;84.06;101851.19;4880148;29;20449;-82
2022/11/03 07:31:24;;;;;;;92.93;49.30;;;;;;;16.76;84.00;101839.91;4879141;29;20486;-82
2022/11/03 07:33:57;;;;;;;90.25;49.97;;;;;;;16.76;83.65;101840.75;4875840;29;20769;-80
2022/11/03 07:36:30;;;;;;;86.57;49.03;;;;;;;16.87;82.49;101854.00;4874722;29;20059;-82
2022/11/03 07:39:03;;;;;;;93.88;49.13;;;;;;;16.60;82.96;101802.97;4894682;29;20460;-81
2022/11/03 07:41:32;;;;;;;103.53;52.47;;;;;;;16.13;82.22;101731.47;4898178;29;20282;-80
2022/11/03 07:44:00;;;;;;;95.60;50.80;;;;;;;16.85;81.96;101861.34;4897775;29;20062;-80
2022/11/03 07:46:28;;;;;;;88.10;47.60;;;;;;;16.86;81.74;101849.63;4896406;29;20059;-79
2022/11/03 07:49:01;;;;;;;97.13;49.70;;;;;;;16.99;81.67;101868.09;4884294;29;20063;-80
2022/11/03 07:51:36;;;;;;;99.95;51.28;;;;;;;16.58;81.90;101792.41;4881746;29;20079;-79
2022/11/03 07:54:20;;;;;;;88.00;49.15;;;;;;;16.28;82.26;101750.59;4883870;29;20616;-79
2022/11/03 07:56:56;;;;;;;96.95;51.13;;;;;;;16.75;81.97;101816.75;4877638;29;20135;-81
2022/11/03 07:59:37;;;;;;;94.38;51.83;;;;;;;16.66;82.08;101794.34;4882968;29;20051;-80
2022/11/03 08:02:25;;;;;;;103.55;52.08;;;;;;;16.93;81.69;101841.84;4880680;29;20056;-80
2022/11/03 08:04:57;;;;;;;99.32;52.72;;;;;;;16.90;81.79;101825.22;4880227;29;20086;-81
2022/11/03 08:07:27;;;;;;;102.95;51.13;;;;;;;16.95;82.29;101833.66;4882912;29;20090;-81
2022/11/03 08:09:54;;;;;;;96.63;50.78;;;;;;;17.12;81.17;101845.44;4882089;29;20056;-80
2022/11/03 08:12:21;;;;;;;97.95;53.13;;;;;;;16.86;81.02;101798.66;4880167;29;20363;-81
2022/11/03 08:14:48;;;;;;;102.57;52.80;;;;;;;17.20;80.55;101838.31;4882308;29;20158;-78
2022/11/03 08:17:19;;;;;;;106.25;54.15;;;;;;;17.19;81.62;101841.16;4900013;29;20060;-78
2022/11/03 08:19:46;;;;;;;103.90;54.28;;;;;;;17.21;81.17;101844.50;4884609;29;20245;-79
2022/11/03 08:22:13;;;;;;;102.63;52.97;;;;;;;17.09;80.93;101822.44;4877160;29;20048;-79
2022/11/03 08:24:40;;;;;;;105.15;53.70;;;;;;;17.20;81.54;101827.56;4880085;29;20139;-80
2022/11/03 08:27:07;;;;;;;108.47;56.40;;;;;;;17.20;80.65;101816.00;4877931;29;20078;-80
2022/11/03 08:29:34;;;;;;;110.88;56.63;;;;;;;17.15;81.01;101819.13;4896165;29;20072;-80
2022/11/03 08:32:05;;;;;;;104.70;55.15;;;;;;;17.24;81.05;101825.44;4878330;29;20044;-79
2022/11/03 08:34:35;;;;;;;110.03;54.92;;;;;;;17.27;80.81;101827.81;4880486;29;20056;-79
2022/11/03 08:37:10;;;;;;;100.97;52.30;;;;;;;17.27;80.75;101825.16;4880569;29;20056;-80
2022/11/03 08:39:36;;;;;;;110.43;56.60;;;;;;;17.11;81.16;101790.91;4880668;29;20048;-79
2022/11/03 08:42:05;;;;;;;110.15;57.38;;;;;;;17.17;81.22;101793.00;4884851;29;20052;-81
2022/11/03 08:44:32;;;;;;;103.75;54.92;;;;;;;16.99;80.56;101762.59;4880697;29;20103;-80
2022/11/03 08:46:58;;;;;;;111.28;58.40;;;;;;;17.32;79.89;101811.28;4878612;29;20445;-80
2022/11/03 08:49:27;;;;;;;117.18;59.20;;;;;;;17.35;80.42;101802.91;4878568;29;20063;-80
2022/11/03 08:51:54;;;;;;;126.55;63.47;;;;;;;17.25;80.20;101770.78;4879722;29;20074;-80
2022/11/03 08:54:23;;;;;;;129.23;59.70;;;;;;;17.18;80.08;101767.84;4887965;29;20064;-80
2022/11/03 08:56:50;;;;;;;134.65;65.78;;;;;;;17.13;80.60;101756.72;4875446;29;20063;-81
2022/11/03 08:59:19;;;;;;;132.50;63.28;;;;;;;17.09;80.28;101755.38;4875291;29;20044;-79
2022/11/03 09:01:49;;;;;;;125.95;61.20;;;;;;;16.98;79.56;101731.41;4883657;29;20177;-79
2022/11/03 09:04:18;;;;;;;132.88;64.78;;;;;;;16.48;80.80;101660.28;4893474;29;20521;-80
2022/11/03 09:06:45;;;;;;;137.70;65.35;;;;;;;17.32;81.38;101793.31;4895210;29;20758;-79
2022/11/03 09:09:16;;;;;;;141.68;64.80;;;;;;;17.33;81.08;101788.78;4899830;29;20082;-81
2022/11/03 09:12:04;;;;;;;145.95;67.03;;;;;;;17.38;80.52;101790.03;4880207;29;20639;-78
2022/11/03 09:14:32;;;;;;;147.15;68.10;;;;;;;17.46;80.05;101794.66;4873846;29;20052;-80
2022/11/03 09:16:59;;;;;;;143.45;64.85;;;;;;;17.53;79.46;101785.00;4872243;29;20056;-81
2022/11/03 09:19:26;;;;;;;144.90;68.85;;;;;;;17.24;80.68;101743.09;4882942;29;20060;-80
2022/11/03 09:21:53;;;;;;;145.20;69.78;;;;;;;17.33;80.63;101762.81;4857337;29;20470;-80
2022/11/03 09:24:23;;;;;;;146.13;68.47;;;;;;;17.43;80.00;101774.31;4870155;29;20657;-79
2022/11/03 09:26:59;;;;;;;137.95;66.03;;;;;;;17.43;80.24;101776.19;4857987;29;20348;-80
2022/11/03 09:29:30;;;;;;;147.82;69.75;;;;;;;17.23;80.20;101735.19;4849678;29;20053;-80
2022/11/03 09:32:17;;;;;;;144.05;65.22;;;;;;;17.16;79.73;101713.50;4868964;29;20049;-81
2022/11/03 09:34:53;;;;;;;146.50;69.18;;;;;;;17.13;80.74;101705.75;4856392;29;20155;-83
2022/11/03 09:37:21;;;;;;;131.98;66.30;;;;;;;17.12;79.69;101690.66;4853740;29;20810;-80
2022/11/03 09:39:51;;;;;;;136.32;66.13;;;;;;;17.54;79.60;101757.13;4869074;29;20048;-80
2022/11/03 09:42:18;;;;;;;130.50;63.17;;;;;;;17.37;78.95;101726.59;4850007;29;20075;-81
2022/11/03 09:44:49;;;;;;;138.10;62.28;;;;;;;17.54;79.48;101754.44;4848396;29;20299;-80
2022/11/03 09:47:28;;;;;;;131.80;66.72;;;;;;;17.44;80.30;101749.16;4854682;29;20222;-79
2022/11/03 09:49:56;;;;;;;149.60;65.10;;;;;;;17.55;79.55;101757.97;4870629;29;20052;-81
2022/11/03 09:52:24;;;;;;;144.82;63.95;;;;;;;17.28;78.66;101701.56;4884452;29;20052;-79
2022/11/03 09:54:55;;;;;;;150.70;68.28;;;;;;;17.58;78.51;101747.78;4892752;29;20062;-81
2022/11/03 09:57:26;;;;;;;148.68;69.57;;;;;;;17.40;78.76;101715.56;4891067;29;20560;-80
2022/11/03 09:59:53;;;;;;;149.43;67.00;;;;;;;17.45;79.32;101725.84;4893961;29;20055;-80
2022/11/03 10:02:30;;;;;;;153.20;70.10;;;;;;;17.25;79.27;101696.47;4892924;29;20059;-80
2022/11/03 10:05:00;;;;;;;149.57;68.70;;;;;;;17.46;78.46;101711.44;4897232;29;20624;-80
2022/11/03 10:07:42;;;;;;;155.70;67.38;;;;;;;17.34;79.52;101689.34;4908883;29;20343;-80
2022/11/03 10:10:19;;;;;;;151.85;67.63;;;;;;;17.70;78.83;101730.44;4881370;29;20144;-80
2022/11/03 10:12:52;;;;;;;134.35;64.20;;;;;;;16.97;78.49;101612.56;4879132;29;20063;-80
2022/11/03 10:15:28;;;;;;;148.68;66.72;;;;;;;16.90;78.38;101599.91;4872828;29;20087;-80
2022/11/03 10:17:57;;;;;;;145.05;65.82;;;;;;;17.62;78.57;101716.94;4874802;29;20052;-81
2022/11/03 10:20:23;;;;;;;144.80;62.65;;;;;;;17.38;78.08;101663.03;4871215;29;21067;-81
2022/11/03 10:22:53;;;;;;;135.77;62.22;;;;;;;17.60;77.96;101686.72;4890122;29;20135;-81
2022/11/03 10:25:37;;;;;;;137.25;57.72;;;;;;;17.72;77.82;101706.13;4876628;29;20518;-80
2022/11/03 10:28:28;;;;;;;151.10;64.13;;;;;;;17.78;78.10;101701.94;4873423;29;20059;-80
2022/11/03 10:31:07;;;;;;;146.82;66.20;;;;;;;17.56;78.14;101650.44;4874937;29;20562;-81
2022/11/03 10:33:54;;;;;;;140.90;64.97;;;;;;;17.84;78.00;101693.28;4871952;29;20818;-80
2022/11/03 10:36:35;;;;;;;147.20;64.30;;;;;;;17.79;77.20;101671.41;4862001;29;20404;-80
2022/11/03 10:39:29;;;;;;;130.90;60.10;;;;;;;17.86;77.86;101683.22;4873985;29;20171;-81
2022/11/03 10:41:58;;;;;;;128.50;59.55;;;;;;;17.28;77.73;101588.84;4878873;29;20052;-80
2022/11/03 10:44:27;;;;;;;137.20;60.65;;;;;;;17.90;77.49;101679.22;4880734;29;20068;-79
2022/11/03 10:47:02;;;;;;;143.40;65.38;;;;;;;17.75;77.74;101643.19;4877277;29;20483;-79
2022/11/03 10:49:35;;;;;;;155.68;63.22;;;;;;;17.77;77.33;101641.16;4891152;29;20082;-79
2022/11/03 10:52:29;;;;;;;143.18;65.85;;;;;;;17.48;77.70;101578.75;4895505;29;20052;-79
2022/11/03 10:54:58;;;;;;;139.52;61.70;;;;;;;17.91;77.47;101633.41;4891494;29;20427;-81
2022/11/03 10:57:31;;;;;;;137.07;61.20;;;;;;;17.99;76.83;101651.41;4884682;29;20071;-80
2022/11/03 11:00:02;;;;;;;134.18;60.20;;;;;;;18.02;77.23;101659.16;4873855;29;20220;-81
2022/11/03 11:02:31;;;;;;;133.68;61.83;;;;;;;17.65;77.44;101603.84;4874635;29;20048;-80
2022/11/03 11:05:00;;;;;;;131.00;61.08;;;;;;;17.82;76.95;101626.31;4888591;29;20448;-81
2022/11/03 11:07:38;;;;;;;134.55;62.25;;;;;;;18.01;77.24;101649.41;4873659;29;20135;-80
2022/11/03 11:10:18;;;;;;;168.40;69.18;;;;;;;17.60;77.11;101573.94;4876738;29;20452;-81
2022/11/03 11:13:22;;;;;;;154.65;66.53;;;;;;;18.25;76.25;101661.28;4878369;29;20063;-80
2022/11/03 11:15:52;;;;;;;149.13;63.97;;;;;;;18.03;76.72;101652.75;4880173;29;20505;-79
2022/11/03 11:18:34;;;;;;;158.65;66.97;;;;;;;18.07;77.38;101656.00;4875769;29;20052;-79
2022/11/03 11:21:23;;;;;;;162.45;68.45;;;;;;;17.90;77.65;101641.63;4881987;29;20504;-79
2022/11/03 11:24:00;;;;;;;150.23;62.80;;;;;;;17.98;78.46;101655.09;4889643;29;20332;-80
2022/11/03 11:26:35;;;;;;;142.82;63.88;;;;;;;17.99;77.50;101647.91;4891636;29;20064;-79
2022/11/03 11:29:14;;;;;;;151.60;63.92;;;;;;;17.94;77.93;101632.25;4880238;29;20235;-79
2022/11/03 11:31:42;;;;;;;147.35;60.45;;;;;;;17.82;78.11;101606.66;4879659;29;20087;-79
2022/11/03 11:34:09;;;;;;;158.85;66.45;;;;;;;17.62;78.11;101568.41;4881903;29;20063;-79
2022/11/03 11:36:48;;;;;;;148.48;62.78;;;;;;;17.27;77.61;101517.38;4894462;29;20060;-79
2022/11/03 11:39:19;;;;;;;148.93;63.90;;;;;;;18.00;78.68;101628.91;4879191;29;20569;-79
2022/11/03 11:42:12;;;;;;;142.43;60.90;;;;;;;17.76;78.63;101580.41;4894112;29;20552;-78
2022/11/03 11:44:52;;;;;;;155.20;62.08;;;;;;;17.75;77.74;101579.56;4880384;29;20058;-81
2022/11/03 11:47:21;;;;;;;145.13;62.67;;;;;;;18.04;77.20;101629.44;4892763;29;20063;-80
2022/11/03 11:50:19;;;;;;;140.13;62.10;;;;;;;18.01;76.80;101627.06;4892219;29;20267;-79
2022/11/03 11:52:57;;;;;;;136.30;60.55;;;;;;;18.07;76.93;101619.22;4877163;29;20063;-80
2022/11/03 11:55:23;;;;;;;131.77;60.38;;;;;;;18.07;76.71;101621.91;4876397;29;20052;-80